createdAt,value
2018-11-13T00:01:45.582Z,96.60
2018-11-13T00:04:15.530Z,96.60
2018-11-13T00:06:45.472Z,96.60
2018-11-13T00:09:15.506Z,96.60
2018-11-13T00:11:45.391Z,96.60
2018-11-13T00:14:15.453Z,96.60
2018-11-13T00:16:45.356Z,96.60
2018-11-13T00:19:15.246Z,96.50
2018-11-13T00:21:45.134Z,96.50
2018-11-13T00:24:14.917Z,96.40
2018-11-13T00:26:45.054Z,96.40
2018-11-13T00:29:14.979Z,96.40
2018-11-13T00:31:44.777Z,96.40
2018-11-13T00:34:14.719Z,96.40
2018-11-13T00:36:44.568Z,96.40
2018-11-13T00:39:14.534Z,96.30
2018-11-13T00:41:44.303Z,96.30
2018-11-13T00:44:14.206Z,96.30
2018-11-13T00:46:44.046Z,96.30
2018-11-13T00:49:14.058Z,96.30
2018-11-13T00:51:43.935Z,96.30
2018-11-13T00:54:13.908Z,96.30
2018-11-13T00:56:43.782Z,96.30
2018-11-13T00:59:13.637Z,96.30
2018-11-13T01:01:43.460Z,96.30
2018-11-13T01:04:13.270Z,96.30
2018-11-13T01:06:43.238Z,96.30
2018-11-13T01:09:13.120Z,96.30
2018-11-13T01:11:42.985Z,96.30
2018-11-13T01:14:12.862Z,96.70
2018-11-13T01:16:42.798Z,96.40
2018-11-13T01:19:12.720Z,96.40
2018-11-13T01:21:42.487Z,96.40
2018-11-13T01:24:12.338Z,96.40
2018-11-13T01:26:42.229Z,96.40
2018-11-13T01:29:12.045Z,96.40
2018-11-13T01:31:41.812Z,96.40
2018-11-13T01:34:11.665Z,96.40
2018-11-13T01:36:41.599Z,96.40
2018-11-13T01:39:11.910Z,96.40
2018-11-13T01:41:41.792Z,96.40
2018-11-13T01:44:11.623Z,96.40
2018-11-13T01:46:41.540Z,96.40
2018-11-13T01:49:11.309Z,96.40
2018-11-13T01:51:41.177Z,96.40
2018-11-13T01:54:11.111Z,96.40
2018-11-13T01:56:41.043Z,96.40
2018-11-13T01:59:10.889Z,96.40
2018-11-13T02:01:40.819Z,96.40
2018-11-13T02:04:10.731Z,96.40
2018-11-13T02:06:40.957Z,96.40
2018-11-13T02:09:11.263Z,96.40
2018-11-13T02:11:41.258Z,96.50
2018-11-13T02:14:11.223Z,96.50
2018-11-13T02:16:41.231Z,96.50
2018-11-13T02:19:11.175Z,96.60
2018-11-13T02:21:41.185Z,96.60
2018-11-13T02:24:11.009Z,96.60
2018-11-13T02:26:40.860Z,96.70
2018-11-13T02:29:10.726Z,96.60
2018-11-13T02:31:40.531Z,96.60
2018-11-13T02:34:10.563Z,96.60
2018-11-13T02:36:40.597Z,96.50
2018-11-13T02:39:11.325Z,96.60
2018-11-13T02:41:41.535Z,96.50
2018-11-13T02:44:11.514Z,96.50
2018-11-13T02:46:41.471Z,96.50
2018-11-13T02:49:11.358Z,96.40
2018-11-13T02:51:41.310Z,96.40
2018-11-13T02:54:11.207Z,96.40
2018-11-13T02:56:41.168Z,96.40
2018-11-13T02:59:11.088Z,96.40
2018-11-13T03:01:41.002Z,96.30
2018-11-13T03:04:10.911Z,96.30
2018-11-13T03:06:40.674Z,96.30
2018-11-13T03:09:10.598Z,96.20
2018-11-13T03:11:40.416Z,96.20
2018-11-13T03:14:10.230Z,96.20
2018-11-13T03:16:40.097Z,96.20
2018-11-13T03:19:09.892Z,96.10
2018-11-13T03:21:39.703Z,96.20
2018-11-13T03:24:09.549Z,96.20
2018-11-13T03:26:39.377Z,96.20
2018-11-13T03:29:09.183Z,96.10
2018-11-13T03:31:39.214Z,96.10
2018-11-13T03:34:09.095Z,96.10
2018-11-13T03:36:39.345Z,96.00
2018-11-13T03:39:10.730Z,96.00
2018-11-13T03:41:40.952Z,96.30
2018-11-13T03:44:11.393Z,95.90
2018-11-13T03:46:41.304Z,95.90
2018-11-13T03:49:11.145Z,95.90
2018-11-13T03:51:40.963Z,95.80
2018-11-13T03:54:10.797Z,95.80
2018-11-13T03:56:40.637Z,95.80
2018-11-13T03:59:10.421Z,95.70
2018-11-13T04:01:40.321Z,95.70
2018-11-13T04:04:15.096Z,95.70
2018-11-13T04:06:45.648Z,95.70
2018-11-13T04:09:15.998Z,95.70
2018-11-13T04:11:45.832Z,95.70
2018-11-13T04:14:15.605Z,95.70
2018-11-13T04:16:45.525Z,95.70
2018-11-13T04:19:15.483Z,95.60
2018-11-13T04:21:49.440Z,95.60
2018-11-13T04:24:19.429Z,95.60
2018-11-13T04:26:49.340Z,95.60
2018-11-13T04:29:19.298Z,95.60
2018-11-13T04:31:49.208Z,95.60
2018-11-13T04:34:19.124Z,95.60
2018-11-13T04:36:48.966Z,95.60
2018-11-13T04:39:19.297Z,95.60
2018-11-13T04:41:49.036Z,95.60
2018-11-13T04:44:18.983Z,95.60
2018-11-13T04:46:48.826Z,95.50
2018-11-13T04:49:18.656Z,95.50
2018-11-13T04:51:48.563Z,95.50
2018-11-13T04:54:18.456Z,95.50
2018-11-13T04:56:48.290Z,95.50
2018-11-13T04:59:18.348Z,95.50
2018-11-13T05:01:48.231Z,95.50
2018-11-13T05:04:18.114Z,95.50
2018-11-13T05:06:47.970Z,95.50
2018-11-13T05:09:17.856Z,95.40
2018-11-13T05:11:47.816Z,95.40
2018-11-13T05:14:17.587Z,95.50
2018-11-13T05:16:47.474Z,95.50
2018-11-13T05:19:17.419Z,95.50
2018-11-13T05:21:47.197Z,95.50
2018-11-13T05:24:17.034Z,95.50
2018-11-13T05:26:46.895Z,95.50
2018-11-13T05:29:16.684Z,95.50
2018-11-13T05:31:46.492Z,95.60
2018-11-13T05:34:16.298Z,95.60
2018-11-13T05:36:46.102Z,95.60
2018-11-13T05:39:15.961Z,95.70
2018-11-13T05:41:45.813Z,95.70
2018-11-13T05:44:15.727Z,95.70
2018-11-13T05:46:45.685Z,95.80
2018-11-13T05:49:15.550Z,95.80
2018-11-13T05:51:45.444Z,96.00
2018-11-13T05:54:15.361Z,96.00
2018-11-13T05:56:45.249Z,96.10
2018-11-13T05:59:15.130Z,96.20
2018-11-13T06:01:44.991Z,96.20
2018-11-13T06:04:14.841Z,96.20
2018-11-13T06:06:44.682Z,96.20
2018-11-13T06:09:14.596Z,96.20
2018-11-13T06:11:44.458Z,96.10
2018-11-13T06:14:14.367Z,96.10
2018-11-13T06:16:44.087Z,96.10
2018-11-13T06:19:13.834Z,96.10
2018-11-13T06:21:43.683Z,96.10
2018-11-13T06:24:13.514Z,96.00
2018-11-13T06:26:43.456Z,95.90
2018-11-13T06:29:13.381Z,95.90
2018-11-13T06:31:43.267Z,95.70
2018-11-13T06:34:13.194Z,95.70
2018-11-13T06:36:43.120Z,95.70
2018-11-13T06:39:14.499Z,95.60
2018-11-13T06:41:44.752Z,95.50
2018-11-13T06:44:14.656Z,95.50
2018-11-13T06:46:44.477Z,95.50
2018-11-13T06:49:14.528Z,95.40
2018-11-13T06:51:44.425Z,95.30
2018-11-13T06:54:30.699Z,95.30
2018-11-13T06:57:00.689Z,95.20
2018-11-13T06:59:30.643Z,95.10
2018-11-13T07:02:00.583Z,95.00
2018-11-13T07:04:30.443Z,95.00
2018-11-13T07:07:00.251Z,94.90
2018-11-13T07:09:30.240Z,94.90
2018-11-13T07:12:00.184Z,94.90
2018-11-13T07:14:30.145Z,94.90
2018-11-13T07:17:00.028Z,94.90
2018-11-13T07:19:29.942Z,94.90
2018-11-13T07:21:59.926Z,94.90
2018-11-13T07:24:29.781Z,95.00
2018-11-13T07:26:59.759Z,95.00
2018-11-13T07:29:30.184Z,95.10
2018-11-13T07:32:00.172Z,95.10
2018-11-13T07:34:30.154Z,95.10
2018-11-13T07:37:00.059Z,95.00
2018-11-13T07:39:29.902Z,95.10
2018-11-13T07:41:59.967Z,95.10
2018-11-13T07:44:29.878Z,95.00
2018-11-13T07:46:59.751Z,94.90
2018-11-13T07:49:30.196Z,95.00
2018-11-13T07:52:00.487Z,95.00
2018-11-13T07:54:30.532Z,95.00
2018-11-13T07:57:00.423Z,95.10
2018-11-13T07:59:30.418Z,95.00
2018-11-13T08:02:00.312Z,95.00
2018-11-13T08:04:30.254Z,94.90
2018-11-13T08:07:00.361Z,94.80
2018-11-13T08:09:30.369Z,94.80
2018-11-13T08:12:00.364Z,94.80
2018-11-13T08:14:30.252Z,94.70
2018-11-13T08:17:00.300Z,94.80
2018-11-13T08:19:30.326Z,94.70
2018-11-13T08:22:00.344Z,94.60
2018-11-13T08:24:30.228Z,94.70
2018-11-13T08:27:00.227Z,94.50
2018-11-13T08:29:30.067Z,94.40
2018-11-13T08:32:00.063Z,94.50
2018-11-13T08:34:30.097Z,94.40
2018-11-13T08:37:00.127Z,94.30
2018-11-13T08:39:29.963Z,94.40
2018-11-13T08:41:59.979Z,94.10
2018-11-13T08:44:29.933Z,94.30
2018-11-13T08:46:59.865Z,94.00
2018-11-13T08:49:29.871Z,94.00
2018-11-13T08:51:59.743Z,93.90
2018-11-13T08:54:29.726Z,93.50
2018-11-13T08:56:59.721Z,93.70
2018-11-13T08:59:29.636Z,93.60
2018-11-13T09:01:59.471Z,93.60
2018-11-13T09:04:29.465Z,93.30
2018-11-13T09:06:59.381Z,93.30
2018-11-13T09:09:29.233Z,93.50
2018-11-13T09:11:59.300Z,93.30
2018-11-13T09:14:29.570Z,93.20
2018-11-13T09:16:59.605Z,93.10
2018-11-13T09:19:29.753Z,92.90
2018-11-13T09:21:59.967Z,92.90
2018-11-13T09:24:30.114Z,93.10
2018-11-13T09:27:00.191Z,93.00
2018-11-13T09:29:30.291Z,92.50
2018-11-13T09:32:00.206Z,92.70
2018-11-13T09:34:30.137Z,92.70
2018-11-13T09:37:00.042Z,92.50
2018-11-13T09:39:30.015Z,92.30
2018-11-13T09:42:00.008Z,92.00
2018-11-13T09:44:30.113Z,91.80
2018-11-13T09:47:00.172Z,92.00
2018-11-13T09:49:30.230Z,92.20
2018-11-13T09:52:00.242Z,91.90
2018-11-13T09:54:30.204Z,91.30
2018-11-13T09:57:00.174Z,91.10
2018-11-13T09:59:30.373Z,91.20
2018-11-13T10:02:00.740Z,91.20
2018-11-13T10:04:31.176Z,90.80
2018-11-13T10:07:00.378Z,90.50
2018-11-13T10:09:30.260Z,90.20
2018-11-13T10:12:00.275Z,89.90
2018-11-13T10:14:30.260Z,88.80
2018-11-13T10:17:00.167Z,89.50
2018-11-13T10:19:30.170Z,88.50
2018-11-13T10:22:00.250Z,89.80
2018-11-13T10:24:30.517Z,88.90
2018-11-13T10:27:00.668Z,89.60
2018-11-13T10:29:30.840Z,89.40
2018-11-13T10:32:00.820Z,89.30
2018-11-13T10:34:30.940Z,89.80
2018-11-13T10:37:01.026Z,88.60
2018-11-13T10:39:31.042Z,88.90
2018-11-13T10:42:01.010Z,88.10
2018-11-13T10:44:30.902Z,88.00
2018-11-13T10:47:00.782Z,88.20
2018-11-13T10:49:30.580Z,86.90
2018-11-13T10:52:00.419Z,86.70
2018-11-13T10:54:30.284Z,86.70
2018-11-13T10:57:00.218Z,87.10
2018-11-13T10:59:30.114Z,85.90
2018-11-13T11:02:02.070Z,87.80
2018-11-13T11:04:37.198Z,87.40
2018-11-13T11:07:07.774Z,84.20
2018-11-13T11:09:38.089Z,84.60
2018-11-13T11:12:08.206Z,84.20
2018-11-13T11:14:38.239Z,84.20
2018-11-13T11:17:08.637Z,84.00
2018-11-13T11:19:38.571Z,84.30
2018-11-13T11:22:08.617Z,83.80
2018-11-13T11:24:38.661Z,83.80
2018-11-13T11:27:08.718Z,83.30
2018-11-13T11:29:38.669Z,82.20
2018-11-13T11:32:08.599Z,83.00
2018-11-13T11:34:38.378Z,84.10
2018-11-13T11:37:08.378Z,81.40
2018-11-13T11:39:38.474Z,81.60
2018-11-13T11:42:08.525Z,82.10
2018-11-13T11:44:38.857Z,81.80
2018-11-13T11:47:08.864Z,79.70
2018-11-13T11:49:39.054Z,80.70
2018-11-13T11:52:09.038Z,80.80
2018-11-13T11:54:39.021Z,79.00
2018-11-13T11:57:08.996Z,79.20
2018-11-13T11:59:39.025Z,77.70
2018-11-13T12:02:09.074Z,77.40
2018-11-13T12:04:39.315Z,77.20
2018-11-13T12:07:09.454Z,76.90
2018-11-13T12:09:39.608Z,77.70
2018-11-13T12:12:09.577Z,76.90
2018-11-13T12:14:39.533Z,78.10
2018-11-13T12:17:09.688Z,78.10
2018-11-13T12:19:39.745Z,78.60
2018-11-13T12:22:10.256Z,79.60
2018-11-13T12:24:40.264Z,79.90
2018-11-13T12:27:10.392Z,80.60
2018-11-13T12:29:40.676Z,80.30
2018-11-13T12:32:10.886Z,81.20
2018-11-13T12:34:41.003Z,81.10
2018-11-13T12:37:11.039Z,80.50
2018-11-13T12:39:40.938Z,80.10
2018-11-13T12:42:11.445Z,80.00
2018-11-13T12:44:41.554Z,78.10
2018-11-13T12:47:12.396Z,78.60
2018-11-13T12:49:42.486Z,78.50
2018-11-13T12:52:15.452Z,79.20
2018-11-13T12:54:46.645Z,78.50
2018-11-13T12:57:16.748Z,78.70
2018-11-13T12:59:46.745Z,79.10
2018-11-13T13:02:16.852Z,79.50
2018-11-13T13:04:46.719Z,79.50
2018-11-13T13:07:16.960Z,79.70
2018-11-13T13:09:47.034Z,79.00
2018-11-13T13:12:16.962Z,79.80
2018-11-13T13:14:46.818Z,79.70
2018-11-13T13:17:17.072Z,79.90
2018-11-13T13:19:47.214Z,79.50
2018-11-13T13:22:17.818Z,80.30
2018-11-13T13:24:47.781Z,80.20
2018-11-13T13:27:17.933Z,80.30
2018-11-13T13:29:47.865Z,80.20
2018-11-13T13:32:18.299Z,80.30
2018-11-13T13:34:48.413Z,80.00
2018-11-13T13:37:18.499Z,80.30
2018-11-13T13:39:48.475Z,79.40
2018-11-13T13:42:18.488Z,79.80
2018-11-13T13:44:48.906Z,79.90
2018-11-13T13:47:18.902Z,80.20
2018-11-13T13:49:48.826Z,80.00
2018-11-13T13:52:18.753Z,80.20
2018-11-13T13:54:48.726Z,80.30
2018-11-13T13:57:18.702Z,80.40
2018-11-13T13:59:48.964Z,80.90
2018-11-13T14:02:18.755Z,81.20
2018-11-13T14:04:48.740Z,81.50
2018-11-13T14:07:18.798Z,81.40
2018-11-13T14:09:48.732Z,80.90
2018-11-13T14:12:20.342Z,80.50
2018-11-13T14:14:50.463Z,79.90
2018-11-13T14:17:22.144Z,80.10
2018-11-13T14:19:52.144Z,79.20
2018-11-13T14:22:22.375Z,79.20
2018-11-13T14:24:52.503Z,79.50
2018-11-13T14:27:22.799Z,79.70
2018-11-13T14:29:52.642Z,80.30
2018-11-13T14:32:22.628Z,80.20
2018-11-13T14:34:52.480Z,80.50
2018-11-13T14:37:22.437Z,80.60
2018-11-13T14:39:52.688Z,80.80
2018-11-13T14:42:22.614Z,80.80
2018-11-13T14:44:52.686Z,80.70
2018-11-13T14:47:22.636Z,80.20
2018-11-13T14:49:52.600Z,80.30
2018-11-13T14:52:22.568Z,80.00
2018-11-13T14:54:52.510Z,79.70
2018-11-13T14:57:22.521Z,79.80
2018-11-13T14:59:52.572Z,79.60
2018-11-13T15:02:22.765Z,79.60
2018-11-13T15:04:52.830Z,79.60
2018-11-13T15:07:22.782Z,79.90
2018-11-13T15:09:52.792Z,79.80
2018-11-13T15:12:22.728Z,80.10
2018-11-13T15:14:52.760Z,79.80
2018-11-13T15:17:22.820Z,80.10
2018-11-13T15:19:52.828Z,80.30
2018-11-13T15:22:22.823Z,80.60
2018-11-13T15:24:52.776Z,80.50
2018-11-13T15:27:22.762Z,80.70
2018-11-13T15:29:53.418Z,80.80
2018-11-13T15:32:23.732Z,81.00
2018-11-13T15:34:53.805Z,81.00
2018-11-13T15:37:23.818Z,81.30
2018-11-13T15:39:53.920Z,81.50
2018-11-13T15:42:23.976Z,81.80
2018-11-13T15:44:53.962Z,81.90
2018-11-13T15:47:23.817Z,82.00
2018-11-13T15:49:53.815Z,82.30
2018-11-13T15:52:23.803Z,82.60
2018-11-13T15:54:53.869Z,82.70
2018-11-13T15:57:23.861Z,82.90
2018-11-13T15:59:53.798Z,83.30
2018-11-13T16:02:23.756Z,83.50
2018-11-13T16:04:53.816Z,83.70
2018-11-13T16:07:24.060Z,84.00
2018-11-13T16:09:54.124Z,84.20
2018-11-13T16:12:24.143Z,84.40
2018-11-13T16:14:54.145Z,84.70
2018-11-13T16:17:24.134Z,85.00
2018-11-13T16:19:54.270Z,85.10
2018-11-13T16:22:24.700Z,85.30
2018-11-13T16:24:54.946Z,85.60
2018-11-13T16:27:24.838Z,85.70
2018-11-13T16:29:55.083Z,86.00
2018-11-13T16:32:24.968Z,86.40
2018-11-13T16:34:56.096Z,86.60
2018-11-13T16:37:26.591Z,86.80
2018-11-13T16:39:56.532Z,87.00
2018-11-13T16:42:27.845Z,87.80
2018-11-13T16:44:57.795Z,87.30
2018-11-13T16:47:30.036Z,87.60
2018-11-13T16:49:59.982Z,87.70
2018-11-13T16:52:29.918Z,88.10
2018-11-13T16:54:59.929Z,88.50
2018-11-13T16:57:30.034Z,88.60
2018-11-13T17:00:00.407Z,88.80
2018-11-13T17:02:30.874Z,89.10
2018-11-13T17:05:00.837Z,89.20
2018-11-13T17:07:30.901Z,89.40
2018-11-13T17:10:00.850Z,89.50
2018-11-13T17:12:31.260Z,90.00
2018-11-13T17:15:01.226Z,90.00
2018-11-13T17:17:31.545Z,90.20
2018-11-13T17:20:01.459Z,90.20
2018-11-13T17:22:31.324Z,90.30
2018-11-13T17:25:01.450Z,90.40
2018-11-13T17:27:32.409Z,90.40
2018-11-13T17:30:02.504Z,90.50
2018-11-13T17:32:37.518Z,90.50
2018-11-13T17:35:09.414Z,90.70
2018-11-13T17:37:49.078Z,90.70
2018-11-13T17:40:20.761Z,90.90
2018-11-13T17:42:51.731Z,91.00
2018-11-13T17:45:24.152Z,91.10
2018-11-13T17:47:54.212Z,91.20
2018-11-13T17:50:26.186Z,91.30
2018-11-13T17:53:01.972Z,91.40
2018-11-13T17:55:32.176Z,91.40
2018-11-13T17:58:05.460Z,91.50
2018-11-13T18:00:38.061Z,91.50
2018-11-13T18:03:11.395Z,91.60
2018-11-13T18:05:42.164Z,91.60
2018-11-13T18:08:13.057Z,91.70
2018-11-13T18:10:44.290Z,91.80
2018-11-13T18:13:15.134Z,91.70
2018-11-13T18:15:44.990Z,92.20
2018-11-13T18:18:15.264Z,91.90
2018-11-13T18:20:45.322Z,91.90
2018-11-13T18:23:15.524Z,92.10
2018-11-13T18:25:45.474Z,92.10
2018-11-13T18:28:15.920Z,92.10
2018-11-13T18:30:46.364Z,92.20
2018-11-13T18:33:16.677Z,92.20
2018-11-13T18:35:46.630Z,92.50
2018-11-13T18:38:17.379Z,92.50
2018-11-13T18:40:48.467Z,92.60
2018-11-13T18:43:19.041Z,92.70
2018-11-13T18:45:49.213Z,92.70
2018-11-13T18:48:19.194Z,92.60
2018-11-13T18:50:49.354Z,92.60
2018-11-13T18:53:19.476Z,92.60
2018-11-13T18:55:49.793Z,92.60
2018-11-13T18:58:19.774Z,92.60
2018-11-13T19:00:49.784Z,92.70
2018-11-13T19:03:20.743Z,92.70
2018-11-13T19:05:50.953Z,92.70
2018-11-13T19:08:21.705Z,92.60
2018-11-13T19:10:52.087Z,92.70
2018-11-13T19:13:25.153Z,92.70
2018-11-13T19:15:59.491Z,92.70
2018-11-13T19:18:30.513Z,92.70
2018-11-13T19:21:00.751Z,92.70
2018-11-13T19:23:30.663Z,92.80
2018-11-13T19:26:00.692Z,92.90
2018-11-13T19:28:30.847Z,92.90
2018-11-13T19:31:01.084Z,93.00
2018-11-13T19:33:31.043Z,93.00
2018-11-13T19:36:02.046Z,93.10
2018-11-13T19:38:32.137Z,93.10
2018-11-13T19:41:02.330Z,93.20
2018-11-13T19:43:32.453Z,93.20
2018-11-13T19:46:02.560Z,93.20
2018-11-13T19:48:32.364Z,93.20
2018-11-13T19:51:02.331Z,93.30
2018-11-13T19:53:32.297Z,93.30
2018-11-13T19:56:02.228Z,93.40
2018-11-13T19:58:32.050Z,93.40
2018-11-13T20:01:02.035Z,93.80
2018-11-13T20:03:32.070Z,93.50
2018-11-13T20:06:01.956Z,93.50
2018-11-13T20:08:31.865Z,93.50
2018-11-13T20:11:01.900Z,93.70
2018-11-13T20:13:31.842Z,93.60
2018-11-13T20:16:02.026Z,93.60
2018-11-13T20:18:31.853Z,93.60
2018-11-13T20:21:01.900Z,93.60
2018-11-13T20:23:31.795Z,93.60
2018-11-13T20:26:01.807Z,93.70
2018-11-13T20:28:31.685Z,93.60
2018-11-13T20:31:01.717Z,93.70
2018-11-13T20:33:31.505Z,93.70
2018-11-13T20:36:01.482Z,93.70
2018-11-13T20:38:31.481Z,93.70
2018-11-13T20:41:01.569Z,93.70
2018-11-13T20:43:31.746Z,93.70
2018-11-13T20:46:01.588Z,93.80
2018-11-13T20:48:31.529Z,93.70
2018-11-13T20:51:01.445Z,93.70
2018-11-13T20:53:31.266Z,93.70
2018-11-13T20:56:01.129Z,93.70
2018-11-13T20:58:31.097Z,93.60
2018-11-13T21:01:01.124Z,93.60
2018-11-13T21:03:31.160Z,93.60
2018-11-13T21:06:01.146Z,93.70
2018-11-13T21:08:31.483Z,93.60
2018-11-13T21:11:02.325Z,93.70
2018-11-13T21:13:32.371Z,93.70
2018-11-13T21:16:02.270Z,93.70
2018-11-13T21:18:32.261Z,93.70
2018-11-13T21:21:02.207Z,93.80
2018-11-13T21:23:32.268Z,93.70
2018-11-13T21:26:02.351Z,93.70
2018-11-13T21:28:32.166Z,93.80
2018-11-13T21:31:02.123Z,93.80
2018-11-13T21:33:31.994Z,93.80
2018-11-13T21:36:01.910Z,94.10
2018-11-13T21:38:31.714Z,93.90
2018-11-13T21:41:01.555Z,94.00
2018-11-13T21:43:36.197Z,94.00
2018-11-13T21:46:06.275Z,93.90
2018-11-13T21:48:36.195Z,94.00
2018-11-13T21:51:06.375Z,94.00
2018-11-13T21:53:36.252Z,94.00
2018-11-13T21:56:06.504Z,94.10
2018-11-13T21:58:36.337Z,94.10
2018-11-13T22:01:06.915Z,94.10
2018-11-13T22:03:36.880Z,93.80
2018-11-13T22:06:07.170Z,94.10
2018-11-13T22:08:37.032Z,94.10
2018-11-13T22:11:06.943Z,94.10
2018-11-13T22:13:37.104Z,94.20
2018-11-13T22:16:07.295Z,94.20
2018-11-13T22:18:37.172Z,94.20
2018-11-13T22:21:07.672Z,94.20
2018-11-13T22:23:37.675Z,94.20
2018-11-13T22:26:07.812Z,94.20
2018-11-13T22:28:37.737Z,94.20
2018-11-13T22:31:07.527Z,94.30
2018-11-13T22:33:37.466Z,94.30
2018-11-13T22:36:08.073Z,94.30
2018-11-13T22:38:38.065Z,94.40
2018-11-13T22:41:08.430Z,94.40
2018-11-13T22:43:38.350Z,94.50
2018-11-13T22:46:08.500Z,94.70
2018-11-13T22:48:38.564Z,94.50
2018-11-13T22:51:08.657Z,94.50
2018-11-13T22:53:38.704Z,94.40
2018-11-13T22:56:11.436Z,94.50
2018-11-13T22:58:43.443Z,94.50
2018-11-13T23:01:14.424Z,94.70
2018-11-13T23:03:44.966Z,94.70
2018-11-13T23:06:19.238Z,94.70
2018-11-13T23:08:49.146Z,94.70
2018-11-13T23:11:21.238Z,94.70
2018-11-13T23:13:58.061Z,94.70
2018-11-13T23:16:28.112Z,94.60
2018-11-13T23:18:58.166Z,94.60
2018-11-13T23:21:28.142Z,94.60
2018-11-13T23:23:58.117Z,94.60
2018-11-13T23:26:28.130Z,94.50
2018-11-13T23:28:58.101Z,94.50
2018-11-13T23:31:28.040Z,94.40
2018-11-13T23:33:57.839Z,94.40
2018-11-13T23:36:27.758Z,94.40
2018-11-13T23:38:57.697Z,94.50
2018-11-13T23:41:27.667Z,94.50
2018-11-13T23:43:57.697Z,94.60
2018-11-13T23:46:27.637Z,94.60
2018-11-13T23:48:57.579Z,94.70
2018-11-13T23:51:27.403Z,94.70
2018-11-13T23:53:57.699Z,94.80
2018-11-13T23:56:27.344Z,94.80
2018-11-13T23:58:57.219Z,94.90
